Terminal Aerodrome Forecast
Issued by NWS Upton, NY

Home | Current Version | Previous Version | Text Only | Print | Product List | Glossary On
Versions: 1 2 3 4 5 6 7 8 9 10 11 12 13 14 15 16 17 18 19 20 21 22 23 24 25 26 27 28 29 30 31 32 33 34 35
000
FTUS41 KOKX 282209 AAB
TAFISP
TAF AMD
KISP 282209Z 2822/2918 33013G19KT 3SM -SN SCT015 BKN035
     FM290400 34012G18KT P6SM BKN035 OVC120
     FM291000 35014KT P6SM BKN050 BKN250
     FM291300 35012KT P6SM SCT250=

USA.gov is the U.S. government's official web portal to all federal, state and local government web resources and services.